createdAt,value
2024-01-29T00:01:27.207Z,18.70
2024-01-29T00:03:54.752Z,18.25
2024-01-29T00:06:22.132Z,15.55
2024-01-29T00:08:51.705Z,15.57
2024-01-29T00:11:20.237Z,16.50
2024-01-29T00:13:47.746Z,18.58
2024-01-29T00:16:15.297Z,17.52
2024-01-29T00:18:42.820Z,15.90
2024-01-29T00:21:10.308Z,15.48
2024-01-29T00:23:37.849Z,18.20
2024-01-29T00:26:05.260Z,15.07
2024-01-29T00:28:32.415Z,15.60
2024-01-29T00:30:59.919Z,16.48
2024-01-29T00:33:27.521Z,16.13
2024-01-29T00:35:54.857Z,15.93
2024-01-29T00:38:22.259Z,17.23
2024-01-29T00:40:49.591Z,18.73
2024-01-29T00:43:17.121Z,14.98
2024-01-29T00:45:44.608Z,17.92
2024-01-29T00:48:12.209Z,15.20
2024-01-29T00:50:39.507Z,16.00
2024-01-29T00:53:07.189Z,17.70
2024-01-29T00:55:34.512Z,17.85
2024-01-29T00:58:02.213Z,15.20
2024-01-29T01:00:29.800Z,16.13
2024-01-29T01:02:57.449Z,15.77
2024-01-29T01:05:24.926Z,17.60
2024-01-29T01:07:52.325Z,16.02
2024-01-29T01:10:19.924Z,15.07
2024-01-29T01:12:47.109Z,14.20
2024-01-29T01:15:14.401Z,17.65
2024-01-29T01:17:42.058Z,16.50
2024-01-29T01:20:09.989Z,18.35
2024-01-29T01:22:37.945Z,17.30
2024-01-29T01:25:06.336Z,18.52
2024-01-29T01:27:34.302Z,15.82
2024-01-29T01:30:01.834Z,15.43
2024-01-29T01:32:29.124Z,16.15
2024-01-29T01:34:56.398Z,15.25
2024-01-29T01:37:23.918Z,14.60
2024-01-29T01:39:54.183Z,15.15
2024-01-29T01:42:22.305Z,15.60
2024-01-29T01:44:49.637Z,17.95
2024-01-29T01:47:16.969Z,15.10
2024-01-29T01:49:44.808Z,15.85
2024-01-29T01:52:12.270Z,15.43
2024-01-29T01:54:41.247Z,18.73
2024-01-29T01:57:08.781Z,17.40
2024-01-29T01:59:39.527Z,15.95
2024-01-29T02:02:11.779Z,14.85
2024-01-29T02:04:39.258Z,16.63
2024-01-29T02:07:06.755Z,15.50
2024-01-29T02:09:34.860Z,16.88
2024-01-29T02:12:02.576Z,15.82
2024-01-29T02:14:29.907Z,18.02
2024-01-29T02:16:57.340Z,16.52
2024-01-29T02:19:24.788Z,15.93
2024-01-29T02:21:52.086Z,15.20
2024-01-29T02:24:19.426Z,15.88
2024-01-29T02:26:48.488Z,16.10
2024-01-29T02:29:15.931Z,13.35
2024-01-29T02:31:43.306Z,16.10
2024-01-29T02:34:10.788Z,14.38
2024-01-29T02:36:38.189Z,12.93
2024-01-29T02:39:05.496Z,12.15
2024-01-29T02:41:35.894Z,14.18
2024-01-29T02:44:03.601Z,16.58
2024-01-29T02:46:31.087Z,19.77
2024-01-29T02:48:58.580Z,14.65
2024-01-29T02:51:26.212Z,14.45
2024-01-29T02:53:53.377Z,14.00
2024-01-29T02:56:21.060Z,13.77
2024-01-29T02:58:48.464Z,14.77
2024-01-29T03:01:19.766Z,14.05
2024-01-29T03:03:47.247Z,12.57
2024-01-29T03:06:14.661Z,12.90
2024-01-29T03:08:42.023Z,13.93
2024-01-29T03:11:09.394Z,13.48
2024-01-29T03:13:36.836Z,14.15
2024-01-29T03:16:04.469Z,15.80
2024-01-29T03:18:31.888Z,14.73
2024-01-29T03:20:59.289Z,13.02
2024-01-29T03:23:26.834Z,14.15
2024-01-29T03:25:54.246Z,14.25
2024-01-29T03:28:21.505Z,12.63
2024-01-29T03:30:49.036Z,12.30
2024-01-29T03:33:16.591Z,13.70
2024-01-29T03:35:43.919Z,14.23
2024-01-29T03:38:11.244Z,13.35
2024-01-29T03:40:38.608Z,13.57
2024-01-29T03:43:06.070Z,13.27
2024-01-29T03:45:33.189Z,14.15
2024-01-29T03:48:00.603Z,16.45
2024-01-29T03:50:27.984Z,13.57
2024-01-29T03:52:55.182Z,10.93
2024-01-29T03:55:23.032Z,12.75
2024-01-29T03:57:50.381Z,15.70
2024-01-29T04:00:20.276Z,11.77
2024-01-29T04:02:49.375Z,12.75
2024-01-29T04:05:17.489Z,12.15
2024-01-29T04:07:45.525Z,13.77
2024-01-29T04:10:13.260Z,10.73
2024-01-29T04:12:40.567Z,13.25
2024-01-29T04:15:08.240Z,13.10
2024-01-29T04:17:36.149Z,13.60
2024-01-29T04:20:07.070Z,12.00
2024-01-29T04:22:35.175Z,13.23
2024-01-29T04:25:08.330Z,12.68
2024-01-29T04:27:35.810Z,14.88
2024-01-29T04:30:04.296Z,12.20
2024-01-29T04:32:31.655Z,11.30
2024-01-29T04:34:59.061Z,12.43
2024-01-29T04:37:26.348Z,12.07
2024-01-29T04:39:54.500Z,13.70
2024-01-29T04:42:22.135Z,12.70
2024-01-29T04:44:49.442Z,10.90
2024-01-29T04:47:17.210Z,12.07
2024-01-29T04:49:44.862Z,12.93
2024-01-29T04:52:12.667Z,11.43
2024-01-29T04:54:40.781Z,13.98
2024-01-29T04:57:08.183Z,10.02
2024-01-29T04:59:35.505Z,10.23
2024-01-29T05:02:02.833Z,9.93
2024-01-29T05:04:30.247Z,9.00
2024-01-29T05:06:58.079Z,10.18
2024-01-29T05:09:25.624Z,9.95
2024-01-29T05:11:53.053Z,9.30
2024-01-29T05:14:20.646Z,11.25
2024-01-29T05:16:48.085Z,9.20
2024-01-29T05:19:16.698Z,9.10
2024-01-29T05:21:44.162Z,10.07
2024-01-29T05:24:11.798Z,11.05
2024-01-29T05:26:39.339Z,10.00
2024-01-29T05:29:06.724Z,8.90
2024-01-29T05:31:34.089Z,8.27
2024-01-29T05:34:01.478Z,8.05
2024-01-29T05:36:28.900Z,10.52
2024-01-29T05:38:56.532Z,10.38
2024-01-29T05:41:24.586Z,10.45
2024-01-29T05:43:52.136Z,9.57
2024-01-29T05:46:19.590Z,8.77
2024-01-29T05:48:47.057Z,7.60
2024-01-29T05:51:14.546Z,9.32
2024-01-29T05:53:44.938Z,7.85
2024-01-29T05:56:12.612Z,7.50
2024-01-29T05:58:41.778Z,8.40
2024-01-29T06:01:09.467Z,9.10
2024-01-29T06:03:37.121Z,9.98
2024-01-29T06:06:05.034Z,9.88
2024-01-29T06:08:32.842Z,10.70
2024-01-29T06:11:00.605Z,8.13
2024-01-29T06:13:29.015Z,9.32
2024-01-29T06:15:56.464Z,8.57
2024-01-29T06:18:24.331Z,8.32
2024-01-29T06:20:51.858Z,7.38
2024-01-29T06:23:19.145Z,14.25
2024-01-29T06:25:46.497Z,11.43
2024-01-29T06:28:13.814Z,10.35
2024-01-29T06:30:42.152Z,8.85
2024-01-29T06:33:09.626Z,8.68
2024-01-29T06:35:36.999Z,8.40
2024-01-29T06:38:04.511Z,8.45
2024-01-29T06:40:31.720Z,7.75
2024-01-29T06:42:59.226Z,9.00
2024-01-29T06:45:26.679Z,8.38
2024-01-29T06:47:54.146Z,9.75
2024-01-29T06:50:21.655Z,7.47
2024-01-29T06:52:49.113Z,8.93
2024-01-29T06:55:19.126Z,7.70
2024-01-29T06:57:46.531Z,7.18
2024-01-29T07:00:14.762Z,8.23
2024-01-29T07:02:42.098Z,7.40
2024-01-29T07:05:09.501Z,7.70
2024-01-29T07:07:36.852Z,8.15
2024-01-29T07:10:04.254Z,8.38
2024-01-29T07:12:31.844Z,7.85
2024-01-29T07:14:59.170Z,8.25
2024-01-29T07:17:26.485Z,9.02
2024-01-29T07:19:54.533Z,9.73
2024-01-29T07:22:22.972Z,9.13
2024-01-29T07:24:50.630Z,9.30
2024-01-29T07:27:18.065Z,8.98
2024-01-29T07:29:45.801Z,8.15
2024-01-29T07:32:13.088Z,8.57
2024-01-29T07:34:40.676Z,6.78
2024-01-29T07:37:08.255Z,8.18
2024-01-29T07:39:35.680Z,8.25
2024-01-29T07:42:03.248Z,7.53
2024-01-29T07:44:30.804Z,7.50
2024-01-29T07:46:58.253Z,6.78
2024-01-29T07:49:25.848Z,6.43
2024-01-29T07:51:54.889Z,6.55
2024-01-29T07:54:22.771Z,6.93
2024-01-29T07:56:50.085Z,7.40
2024-01-29T07:59:17.261Z,6.82
2024-01-29T08:01:46.640Z,6.78
2024-01-29T08:04:14.375Z,7.25
2024-01-29T08:06:41.805Z,6.97
2024-01-29T08:09:09.088Z,7.68
2024-01-29T08:11:36.393Z,7.32
2024-01-29T08:14:04.074Z,7.30
2024-01-29T08:16:32.405Z,8.40
2024-01-29T08:19:00.287Z,7.10
2024-01-29T08:21:28.008Z,8.93
2024-01-29T08:23:56.558Z,7.20
2024-01-29T08:26:24.001Z,8.00
2024-01-29T08:28:51.722Z,7.65
2024-01-29T08:31:19.018Z,6.43
2024-01-29T08:33:46.504Z,8.05
2024-01-29T08:36:15.349Z,6.50
2024-01-29T08:38:43.027Z,8.85
2024-01-29T08:41:10.502Z,8.85
2024-01-29T08:43:37.894Z,7.88
2024-01-29T08:46:05.499Z,9.35
2024-01-29T08:48:32.956Z,9.73
2024-01-29T08:51:00.586Z,9.55
2024-01-29T08:53:27.853Z,7.53
2024-01-29T08:55:55.260Z,7.55
2024-01-29T08:58:25.340Z,8.63
2024-01-29T09:00:56.109Z,9.88
2024-01-29T09:03:26.076Z,15.57
2024-01-29T09:05:53.645Z,12.48
2024-01-29T09:08:21.417Z,15.65
2024-01-29T09:10:49.192Z,12.32
2024-01-29T09:13:16.879Z,19.25
2024-01-29T09:15:44.516Z,13.43
2024-01-29T09:18:12.088Z,8.77
2024-01-29T09:20:39.343Z,9.10
2024-01-29T09:23:08.886Z,9.13
2024-01-29T09:25:36.543Z,7.28
2024-01-29T09:28:04.272Z,10.85
2024-01-29T09:30:31.876Z,7.35
2024-01-29T09:33:07.393Z,10.32
2024-01-29T09:35:43.224Z,9.18
2024-01-29T09:38:10.586Z,7.85
2024-01-29T09:40:37.925Z,8.20
2024-01-29T09:43:07.543Z,7.40
2024-01-29T09:45:37.636Z,8.52
2024-01-29T09:48:08.861Z,9.23
2024-01-29T09:50:38.996Z,9.32
2024-01-29T09:53:07.651Z,9.27
2024-01-29T09:55:34.883Z,6.65
2024-01-29T09:58:02.355Z,7.80
2024-01-29T10:00:32.159Z,8.63
2024-01-29T10:03:05.857Z,8.95
2024-01-29T10:05:33.543Z,9.23
2024-01-29T10:08:01.731Z,9.50
2024-01-29T10:10:29.262Z,9.18
2024-01-29T10:13:07.400Z,9.20
2024-01-29T10:15:35.009Z,8.52
2024-01-29T10:18:02.780Z,8.18
2024-01-29T10:20:30.080Z,6.78
2024-01-29T10:23:01.561Z,8.23
2024-01-29T10:25:29.384Z,7.72
2024-01-29T10:28:13.604Z,7.47
2024-01-29T10:30:42.151Z,9.13
2024-01-29T10:33:10.321Z,7.25
2024-01-29T10:35:38.882Z,8.80
2024-01-29T10:38:07.508Z,8.88
2024-01-29T10:40:35.956Z,8.68
2024-01-29T10:43:03.852Z,7.32
2024-01-29T10:45:38.868Z,7.75
2024-01-29T10:48:22.213Z,8.38
2024-01-29T10:50:50.720Z,6.88
2024-01-29T10:53:19.267Z,5.72
2024-01-29T10:55:50.424Z,5.75
2024-01-29T10:58:19.131Z,5.45
2024-01-29T11:00:46.987Z,5.70
2024-01-29T11:03:14.581Z,6.13
2024-01-29T11:05:54.345Z,7.18
2024-01-29T11:08:25.844Z,7.20
2024-01-29T11:10:53.508Z,6.40
2024-01-29T11:13:22.769Z,6.65
2024-01-29T11:15:50.084Z,6.15
2024-01-29T11:18:17.487Z,7.22
2024-01-29T11:20:45.341Z,6.93
2024-01-29T11:23:21.796Z,9.95
2024-01-29T11:25:52.974Z,5.60
2024-01-29T11:28:20.373Z,6.93
2024-01-29T11:30:51.664Z,6.70
2024-01-29T11:33:20.452Z,6.38
2024-01-29T11:35:50.507Z,8.25
2024-01-29T11:38:23.306Z,6.13
2024-01-29T11:40:50.485Z,8.35
2024-01-29T11:43:21.108Z,6.95
2024-01-29T11:45:50.958Z,7.05
2024-01-29T11:48:20.956Z,9.13
2024-01-29T11:50:50.532Z,6.40
2024-01-29T11:53:19.351Z,5.70
2024-01-29T11:55:49.241Z,5.88
2024-01-29T11:58:18.014Z,6.25
2024-01-29T12:00:46.374Z,6.82
2024-01-29T12:03:37.755Z,6.43
2024-01-29T12:06:07.772Z,6.80
2024-01-29T12:08:35.054Z,7.25
2024-01-29T12:11:04.691Z,5.50
2024-01-29T12:13:32.778Z,6.85
2024-01-29T12:16:02.665Z,7.45
2024-01-29T12:18:31.902Z,7.07
2024-01-29T12:20:59.629Z,9.32
2024-01-29T12:23:27.030Z,5.57
2024-01-29T12:25:56.200Z,8.77
2024-01-29T12:28:26.947Z,7.78
2024-01-29T12:30:56.877Z,6.78
2024-01-29T12:33:31.019Z,8.05
2024-01-29T12:36:13.410Z,5.60
2024-01-29T12:38:53.972Z,5.95
2024-01-29T12:41:22.422Z,5.78
2024-01-29T12:43:53.033Z,5.13
2024-01-29T12:46:20.741Z,6.22
2024-01-29T12:48:48.762Z,5.35
2024-01-29T12:51:16.514Z,5.22
2024-01-29T12:53:56.610Z,6.18
2024-01-29T12:56:31.625Z,10.95
2024-01-29T12:58:59.258Z,5.18
2024-01-29T13:01:27.203Z,6.68
2024-01-29T13:03:55.094Z,3.83
2024-01-29T13:06:24.018Z,4.30
2024-01-29T13:08:51.691Z,5.25
2024-01-29T13:11:19.212Z,3.90
2024-01-29T13:13:46.777Z,4.25
2024-01-29T13:16:14.103Z,3.58
2024-01-29T13:18:41.478Z,3.45
2024-01-29T13:21:10.653Z,4.07
2024-01-29T13:23:39.018Z,3.92
2024-01-29T13:26:08.133Z,5.32
2024-01-29T13:28:35.649Z,6.13
2024-01-29T13:31:04.167Z,4.50
2024-01-29T13:33:31.611Z,5.25
2024-01-29T13:35:59.459Z,6.32
2024-01-29T13:38:27.485Z,7.50
2024-01-29T13:40:55.367Z,4.30
2024-01-29T13:43:22.753Z,5.38
2024-01-29T13:45:50.197Z,7.78
2024-01-29T13:48:17.528Z,3.75
2024-01-29T13:50:46.546Z,3.65
2024-01-29T13:53:13.863Z,2.42
2024-01-29T13:55:41.115Z,4.97
2024-01-29T13:58:08.589Z,5.47
2024-01-29T14:00:36.135Z,6.55
2024-01-29T14:03:05.332Z,4.28
2024-01-29T14:05:33.180Z,3.60
2024-01-29T14:08:00.565Z,4.10
2024-01-29T14:10:30.583Z,4.60
2024-01-29T14:12:57.883Z,3.90
2024-01-29T14:15:25.290Z,3.78
2024-01-29T14:17:52.608Z,10.20
2024-01-29T14:20:20.394Z,7.60
2024-01-29T14:22:48.002Z,5.32
2024-01-29T14:25:15.359Z,6.18
2024-01-29T14:27:43.244Z,7.13
2024-01-29T14:30:11.075Z,6.75
2024-01-29T14:32:39.842Z,12.48
2024-01-29T14:35:09.721Z,5.97
2024-01-29T14:37:41.679Z,5.75
2024-01-29T14:40:09.309Z,7.57
2024-01-29T14:42:37.205Z,6.22
2024-01-29T14:45:06.326Z,7.95
2024-01-29T14:47:33.694Z,7.40
2024-01-29T14:50:00.960Z,7.10
2024-01-29T14:52:28.511Z,9.77
2024-01-29T14:54:55.995Z,8.20
2024-01-29T14:57:23.561Z,9.18
2024-01-29T14:59:50.766Z,5.55
2024-01-29T15:02:19.079Z,6.45
2024-01-29T15:04:47.097Z,7.35
2024-01-29T15:07:15.000Z,5.65
2024-01-29T15:09:42.621Z,6.47
2024-01-29T15:12:10.201Z,7.03
2024-01-29T15:14:37.524Z,6.28
2024-01-29T15:17:06.499Z,5.68
2024-01-29T15:19:34.360Z,5.75
2024-01-29T15:22:02.048Z,6.40
2024-01-29T15:24:30.104Z,4.40
2024-01-29T15:26:57.876Z,7.90
2024-01-29T15:29:25.759Z,4.97
2024-01-29T15:31:53.022Z,6.03
2024-01-29T15:34:20.617Z,7.60
2024-01-29T15:36:48.128Z,6.57
2024-01-29T15:39:15.541Z,5.43
2024-01-29T15:41:43.490Z,5.68
2024-01-29T15:44:10.955Z,5.30
2024-01-29T15:46:44.790Z,5.72
2024-01-29T15:49:12.814Z,5.63
2024-01-29T15:51:40.645Z,5.07
2024-01-29T15:54:08.322Z,6.55
2024-01-29T15:56:35.873Z,8.32
2024-01-29T15:59:03.916Z,5.18
2024-01-29T16:01:33.569Z,5.72
2024-01-29T16:04:02.986Z,7.90
2024-01-29T16:06:30.833Z,10.10
2024-01-29T16:08:58.690Z,14.88
2024-01-29T16:11:32.298Z,35.25
2024-01-29T16:14:00.544Z,21.50
2024-01-29T16:16:27.824Z,15.80
2024-01-29T16:18:55.608Z,7.90
2024-01-29T16:21:24.343Z,8.43
2024-01-29T16:23:52.529Z,7.47
2024-01-29T16:26:23.551Z,7.38
2024-01-29T16:28:51.045Z,9.80
2024-01-29T16:31:18.363Z,20.70
2024-01-29T16:33:46.050Z,17.15
2024-01-29T16:36:20.880Z,18.17
2024-01-29T16:38:49.533Z,18.88
2024-01-29T16:41:24.168Z,17.20
2024-01-29T16:43:52.463Z,15.10
2024-01-29T16:46:24.222Z,17.30
2024-01-29T16:48:51.588Z,13.68
2024-01-29T16:51:28.430Z,22.80
2024-01-29T16:53:55.977Z,47.03
2024-01-29T16:56:30.859Z,47.70
2024-01-29T16:59:05.012Z,35.25
2024-01-29T17:01:33.476Z,23.50
2024-01-29T17:04:04.852Z,27.17
2024-01-29T17:06:32.597Z,19.35
2024-01-29T17:09:00.426Z,17.85
2024-01-29T17:11:28.292Z,20.50
2024-01-29T17:13:55.904Z,26.40
2024-01-29T17:16:23.317Z,18.98
2024-01-29T17:18:50.736Z,14.95
2024-01-29T17:21:18.241Z,9.50
2024-01-29T17:23:45.949Z,10.52
2024-01-29T17:26:13.416Z,11.27
2024-01-29T17:28:43.047Z,9.43
2024-01-29T17:31:11.008Z,10.73
2024-01-29T17:33:39.739Z,17.23
2024-01-29T17:36:07.515Z,19.88
2024-01-29T17:38:35.076Z,16.40
2024-01-29T17:41:02.388Z,12.55
2024-01-29T17:43:30.088Z,14.25
2024-01-29T17:45:57.653Z,14.77
2024-01-29T17:48:25.829Z,15.00
2024-01-29T17:50:53.470Z,14.95
2024-01-29T17:53:20.861Z,17.90
2024-01-29T17:55:48.277Z,17.48
2024-01-29T17:58:17.997Z,17.17
2024-01-29T18:00:47.118Z,13.45
2024-01-29T18:03:14.762Z,22.73
2024-01-29T18:05:44.171Z,21.63
2024-01-29T18:08:11.579Z,14.10
2024-01-29T18:10:39.280Z,12.35
2024-01-29T18:13:07.004Z,15.35
2024-01-29T18:15:34.570Z,14.85
2024-01-29T18:18:02.895Z,11.95
2024-01-29T18:20:31.185Z,15.10
2024-01-29T18:22:59.014Z,11.60
2024-01-29T18:25:26.402Z,12.20
2024-01-29T18:27:54.645Z,13.18
2024-01-29T18:30:21.909Z,15.15
2024-01-29T18:32:50.108Z,15.73
2024-01-29T18:35:17.654Z,12.50
2024-01-29T18:37:46.016Z,11.50
2024-01-29T18:40:14.216Z,11.23
2024-01-29T18:42:41.803Z,11.48
2024-01-29T18:45:09.705Z,10.50
2024-01-29T18:47:37.109Z,12.20
2024-01-29T18:50:07.998Z,11.05
2024-01-29T18:52:35.420Z,12.80
2024-01-29T18:55:02.933Z,15.32
2024-01-29T18:57:30.712Z,14.50
2024-01-29T19:00:06.454Z,13.32
2024-01-29T19:02:34.404Z,17.95
2024-01-29T19:05:02.366Z,17.95
2024-01-29T19:07:30.371Z,15.68
2024-01-29T19:09:58.489Z,17.13
2024-01-29T19:12:26.179Z,12.05
2024-01-29T19:14:54.309Z,12.05
2024-01-29T19:17:24.723Z,11.00
2024-01-29T19:19:52.454Z,13.32
2024-01-29T19:22:20.440Z,11.63
2024-01-29T19:24:48.319Z,15.57
2024-01-29T19:27:16.255Z,37.53
2024-01-29T19:29:48.116Z,35.70
2024-01-29T19:32:16.381Z,39.80
2024-01-29T19:34:46.351Z,30.73
2024-01-29T19:37:17.275Z,16.60
2024-01-29T19:39:48.166Z,11.18
2024-01-29T19:42:15.901Z,10.57
2024-01-29T19:44:45.011Z,10.55
2024-01-29T19:47:12.302Z,11.20
2024-01-29T19:49:39.668Z,12.80
2024-01-29T19:52:07.476Z,13.95
2024-01-29T19:54:34.741Z,14.68
2024-01-29T19:57:01.879Z,14.55
2024-01-29T19:59:29.705Z,11.60
2024-01-29T20:01:58.292Z,10.07
2024-01-29T20:04:26.888Z,12.50
2024-01-29T20:06:54.493Z,12.68
2024-01-29T20:09:21.830Z,13.48
2024-01-29T20:11:49.163Z,14.48
2024-01-29T20:14:16.313Z,14.50
2024-01-29T20:16:43.823Z,11.27
2024-01-29T20:19:11.308Z,15.02
2024-01-29T20:21:42.546Z,14.25
2024-01-29T20:24:10.546Z,13.68
2024-01-29T20:26:47.223Z,14.27
2024-01-29T20:29:15.211Z,14.90
2024-01-29T20:31:42.899Z,16.05
2024-01-29T20:34:10.906Z,12.57
2024-01-29T20:36:41.809Z,13.32
2024-01-29T20:39:09.865Z,14.48
2024-01-29T20:41:46.904Z,11.85
2024-01-29T20:44:18.267Z,11.40
2024-01-29T20:46:46.665Z,11.57
2024-01-29T20:49:14.937Z,12.43
2024-01-29T20:51:44.348Z,16.63
2024-01-29T20:54:13.173Z,17.55
2024-01-29T20:56:40.841Z,18.58
2024-01-29T20:59:08.168Z,13.80
2024-01-29T21:01:36.040Z,14.43
2024-01-29T21:04:04.216Z,16.55
2024-01-29T21:06:33.037Z,15.73
2024-01-29T21:09:00.256Z,19.20
2024-01-29T21:11:28.502Z,15.70
2024-01-29T21:13:55.868Z,13.73
2024-01-29T21:16:23.445Z,15.13
2024-01-29T21:18:50.968Z,13.52
2024-01-29T21:21:18.720Z,16.08
2024-01-29T21:23:47.326Z,15.00
2024-01-29T21:26:15.454Z,14.25
2024-01-29T21:28:43.224Z,22.77
2024-01-29T21:31:12.038Z,39.15
2024-01-29T21:33:39.581Z,43.92
2024-01-29T21:36:07.890Z,35.80
2024-01-29T21:38:35.448Z,39.10
2024-01-29T21:41:04.031Z,48.05
2024-01-29T21:43:31.380Z,39.38
2024-01-29T21:45:58.656Z,46.15
2024-01-29T21:48:26.028Z,73.38
2024-01-29T21:50:53.489Z,37.92
2024-01-29T21:53:21.109Z,27.45
2024-01-29T21:55:48.713Z,20.27
2024-01-29T21:58:20.722Z,17.48
2024-01-29T22:00:48.415Z,14.80
2024-01-29T22:03:15.852Z,14.90
2024-01-29T22:05:44.359Z,13.85
2024-01-29T22:08:12.419Z,11.60
2024-01-29T22:10:39.580Z,12.98
2024-01-29T22:13:06.914Z,13.00
2024-01-29T22:15:34.886Z,14.43
2024-01-29T22:18:02.461Z,19.00
2024-01-29T22:20:30.371Z,16.92
2024-01-29T22:22:57.918Z,18.80
2024-01-29T22:25:25.571Z,19.48
2024-01-29T22:27:53.331Z,13.02
2024-01-29T22:30:22.650Z,14.50
2024-01-29T22:32:50.232Z,21.33
2024-01-29T22:35:17.740Z,17.83
2024-01-29T22:37:45.480Z,14.23
2024-01-29T22:40:13.979Z,17.35
2024-01-29T22:42:41.787Z,16.30
2024-01-29T22:45:09.547Z,17.70
2024-01-29T22:47:36.944Z,17.65
2024-01-29T22:50:06.867Z,17.30
2024-01-29T22:52:34.575Z,14.50
2024-01-29T22:55:02.229Z,16.58
2024-01-29T22:57:30.384Z,16.00
2024-01-29T22:59:58.246Z,16.35
2024-01-29T23:02:25.720Z,17.08
2024-01-29T23:04:53.416Z,14.50
2024-01-29T23:07:21.368Z,16.63
2024-01-29T23:09:48.870Z,15.85
2024-01-29T23:12:16.405Z,15.05
2024-01-29T23:14:43.965Z,14.35
2024-01-29T23:17:13.117Z,15.88
2024-01-29T23:19:41.826Z,14.27
2024-01-29T23:22:09.662Z,14.05
2024-01-29T23:24:37.504Z,18.92
2024-01-29T23:27:05.486Z,15.68
2024-01-29T23:29:32.705Z,13.23
2024-01-29T23:32:03.765Z,18.30
2024-01-29T23:34:31.326Z,17.13
2024-01-29T23:36:58.639Z,14.40
2024-01-29T23:39:25.683Z,16.10
2024-01-29T23:41:55.201Z,16.80
2024-01-29T23:44:22.562Z,14.07
2024-01-29T23:46:50.002Z,16.48
2024-01-29T23:49:17.404Z,15.30
2024-01-29T23:51:44.570Z,13.35
2024-01-29T23:54:11.687Z,15.30
2024-01-29T23:56:38.890Z,15.27
2024-01-29T23:59:06.447Z,14.68
